sensor_id;sensor_type;location;lat;lon;timestamp;pressure;altitude;pressure_sealevel;temperature;humidity
70015;BME280;57358;51.094;6.760;2023-04-15T00:00:56;100232.75;;;5.54;96.09
70015;BME280;57358;51.094;6.760;2023-04-15T00:03:23;100238.91;;;5.52;96.52
70015;BME280;57358;51.094;6.760;2023-04-15T00:05:50;100163.47;;;5.06;97.42
70015;BME280;57358;51.094;6.760;2023-04-15T00:08:17;100221.28;;;5.36;96.92
70015;BME280;57358;51.094;6.760;2023-04-15T00:10:43;100239.03;;;5.49;97.24
70015;BME280;57358;51.094;6.760;2023-04-15T00:13:11;100208.16;;;5.17;97.81
70015;BME280;57358;51.094;6.760;2023-04-15T00:15:38;100242.72;;;5.43;98.94
70015;BME280;57358;51.094;6.760;2023-04-15T00:18:04;100241.22;;;5.37;99.26
70015;BME280;57358;51.094;6.760;2023-04-15T00:20:31;100245.69;;;5.34;99.31
70015;BME280;57358;51.094;6.760;2023-04-15T00:22:57;100196.72;;;4.98;100.00
70015;BME280;57358;51.094;6.760;2023-04-15T00:25:24;100126.59;;;4.49;100.00
70015;BME280;57358;51.094;6.760;2023-04-15T00:27:51;100052.84;;;4.05;100.00
70015;BME280;57358;51.094;6.760;2023-04-15T00:30:17;100254.03;;;5.18;100.00
70015;BME280;57358;51.094;6.760;2023-04-15T00:32:44;100250.66;;;5.16;100.00
70015;BME280;57358;51.094;6.760;2023-04-15T00:35:12;100249.03;;;5.14;100.00
70015;BME280;57358;51.094;6.760;2023-04-15T00:37:38;100229.75;;;4.96;100.00
70015;BME280;57358;51.094;6.760;2023-04-15T00:40:05;100255.34;;;5.07;100.00
70015;BME280;57358;51.094;6.760;2023-04-15T00:42:33;100248.72;;;4.98;100.00
70015;BME280;57358;51.094;6.760;2023-04-15T00:45:00;100237.63;;;4.93;100.00
70015;BME280;57358;51.094;6.760;2023-04-15T00:47:28;100147.78;;;4.37;100.00
70015;BME280;57358;51.094;6.760;2023-04-15T00:49:55;100255.75;;;4.96;100.00
70015;BME280;57358;51.094;6.760;2023-04-15T00:52:21;100247.19;;;4.92;100.00
70015;BME280;57358;51.094;6.760;2023-04-15T00:54:48;100212.47;;;4.70;100.00
70015;BME280;57358;51.094;6.760;2023-04-15T00:57:14;100241.53;;;4.81;100.00
70015;BME280;57358;51.094;6.760;2023-04-15T00:59:41;100245.03;;;4.80;100.00
70015;BME280;57358;51.094;6.760;2023-04-15T01:02:07;100246.84;;;4.78;100.00
70015;BME280;57358;51.094;6.760;2023-04-15T01:04:34;100220.19;;;4.48;100.00
70015;BME280;57358;51.094;6.760;2023-04-15T01:07:01;100248.97;;;4.67;100.00
70015;BME280;57358;51.094;6.760;2023-04-15T01:09:27;100250.84;;;4.63;100.00
70015;BME280;57358;51.094;6.760;2023-04-15T01:11:54;100248.38;;;4.58;100.00
70015;BME280;57358;51.094;6.760;2023-04-15T01:14:22;100253.75;;;4.54;100.00
70015;BME280;57358;51.094;6.760;2023-04-15T01:16:48;100249.44;;;4.53;100.00
70015;BME280;57358;51.094;6.760;2023-04-15T01:19:15;100190.13;;;4.15;100.00
70015;BME280;57358;51.094;6.760;2023-04-15T01:21:43;100187.66;;;4.11;100.00
70015;BME280;57358;51.094;6.760;2023-04-15T01:24:12;100210.16;;;4.12;100.00
70015;BME280;57358;51.094;6.760;2023-04-15T01:26:41;100261.06;;;4.43;100.00
70015;BME280;57358;51.094;6.760;2023-04-15T01:29:09;100255.13;;;4.39;100.00
70015;BME280;57358;51.094;6.760;2023-04-15T01:31:36;100249.88;;;4.40;100.00
70015;BME280;57358;51.094;6.760;2023-04-15T01:34:03;100258.78;;;4.33;100.00
70015;BME280;57358;51.094;6.760;2023-04-15T01:36:29;100254.69;;;4.26;100.00
70015;BME280;57358;51.094;6.760;2023-04-15T01:38:56;100258.28;;;4.22;100.00
70015;BME280;57358;51.094;6.760;2023-04-15T01:41:25;100242.47;;;4.03;100.00
70015;BME280;57358;51.094;6.760;2023-04-15T01:43:52;100054.88;;;2.63;100.00
70015;BME280;57358;51.094;6.760;2023-04-15T01:46:19;100250.13;;;4.06;100.00
70015;BME280;57358;51.094;6.760;2023-04-15T01:48:46;100252.72;;;4.06;100.00
70015;BME280;57358;51.094;6.760;2023-04-15T01:51:12;100251.09;;;4.04;100.00
70015;BME280;57358;51.094;6.760;2023-04-15T01:53:38;100246.91;;;3.99;100.00
70015;BME280;57358;51.094;6.760;2023-04-15T01:56:05;100253.88;;;3.97;100.00
70015;BME280;57358;51.094;6.760;2023-04-15T01:58:32;100163.03;;;3.43;100.00
70015;BME280;57358;51.094;6.760;2023-04-15T02:00:58;100303.59;;;3.85;100.00
70015;BME280;57358;51.094;6.760;2023-04-15T02:03:25;100256.88;;;3.85;100.00
70015;BME280;57358;51.094;6.760;2023-04-15T02:05:52;100251.13;;;3.75;100.00
70015;BME280;57358;51.094;6.760;2023-04-15T02:08:19;100167.97;;;3.24;100.00
70015;BME280;57358;51.094;6.760;2023-04-15T02:10:47;100253.00;;;3.70;100.00
70015;BME280;57358;51.094;6.760;2023-04-15T02:13:14;100198.81;;;3.33;100.00
70015;BME280;57358;51.094;6.760;2023-04-15T02:15:49;100222.84;;;3.38;100.00
70015;BME280;57358;51.094;6.760;2023-04-15T02:18:16;100249.56;;;3.42;100.00
70015;BME280;57358;51.094;6.760;2023-04-15T02:20:42;100251.63;;;3.58;100.00
70015;BME280;57358;51.094;6.760;2023-04-15T02:23:09;100253.38;;;3.58;100.00
70015;BME280;57358;51.094;6.760;2023-04-15T02:25:36;100262.97;;;3.56;100.00
70015;BME280;57358;51.094;6.760;2023-04-15T02:28:04;100261.28;;;3.55;100.00
70015;BME280;57358;51.094;6.760;2023-04-15T02:30:32;100161.91;;;2.95;100.00
70015;BME280;57358;51.094;6.760;2023-04-15T02:32:59;100128.81;;;2.75;100.00
70015;BME280;57358;51.094;6.760;2023-04-15T02:35:26;100229.78;;;3.37;100.00
70015;BME280;57358;51.094;6.760;2023-04-15T02:37:53;100260.38;;;3.56;100.00
70015;BME280;57358;51.094;6.760;2023-04-15T02:40:19;100262.19;;;3.52;100.00
70015;BME280;57358;51.094;6.760;2023-04-15T02:42:46;100264.09;;;3.47;100.00
70015;BME280;57358;51.094;6.760;2023-04-15T02:45:12;100258.16;;;3.44;100.00
70015;BME280;57358;51.094;6.760;2023-04-15T02:47:39;100132.59;;;2.63;100.00
70015;BME280;57358;51.094;6.760;2023-04-15T02:50:08;100260.16;;;3.34;100.00
70015;BME280;57358;51.094;6.760;2023-04-15T02:52:34;100263.78;;;3.28;100.00
70015;BME280;57358;51.094;6.760;2023-04-15T02:55:03;100137.34;;;2.49;100.00
70015;BME280;57358;51.094;6.760;2023-04-15T02:57:30;100211.56;;;2.81;100.00
70015;BME280;57358;51.094;6.760;2023-04-15T02:59:56;100259.13;;;3.10;100.00
70015;BME280;57358;51.094;6.760;2023-04-15T03:02:23;100277.38;;;3.07;100.00
70015;BME280;57358;51.094;6.760;2023-04-15T03:04:50;100257.75;;;2.96;100.00
70015;BME280;57358;51.094;6.760;2023-04-15T03:07:17;100164.44;;;2.35;100.00
70015;BME280;57358;51.094;6.760;2023-04-15T03:09:44;100268.22;;;2.93;100.00
70015;BME280;57358;51.094;6.760;2023-04-15T03:12:11;100251.34;;;2.78;100.00
70015;BME280;57358;51.094;6.760;2023-04-15T03:14:37;100270.97;;;2.89;100.00
70015;BME280;57358;51.094;6.760;2023-04-15T03:17:03;100248.22;;;2.67;100.00
70015;BME280;57358;51.094;6.760;2023-04-15T03:19:30;100276.25;;;2.84;100.00
70015;BME280;57358;51.094;6.760;2023-04-15T03:21:57;100274.59;;;2.82;100.00
70015;BME280;57358;51.094;6.760;2023-04-15T03:24:23;100277.13;;;2.85;100.00
70015;BME280;57358;51.094;6.760;2023-04-15T03:26:50;100177.63;;;2.26;100.00
70015;BME280;57358;51.094;6.760;2023-04-15T03:29:16;100277.16;;;2.83;100.00
70015;BME280;57358;51.094;6.760;2023-04-15T03:31:43;100235.53;;;2.56;100.00
70015;BME280;57358;51.094;6.760;2023-04-15T03:34:11;100278.06;;;2.80;100.00
70015;BME280;57358;51.094;6.760;2023-04-15T03:36:38;100270.38;;;2.77;100.00
70015;BME280;57358;51.094;6.760;2023-04-15T03:39:04;100258.44;;;2.72;100.00
70015;BME280;57358;51.094;6.760;2023-04-15T03:41:31;100216.88;;;2.44;100.00
70015;BME280;57358;51.094;6.760;2023-04-15T03:43:58;100277.31;;;2.77;100.00
70015;BME280;57358;51.094;6.760;2023-04-15T03:46:24;100272.16;;;2.75;100.00
70015;BME280;57358;51.094;6.760;2023-04-15T03:48:51;100277.38;;;2.74;100.00
70015;BME280;57358;51.094;6.760;2023-04-15T03:51:17;100279.13;;;2.73;100.00
70015;BME280;57358;51.094;6.760;2023-04-15T03:53:43;100279.13;;;2.73;100.00
70015;BME280;57358;51.094;6.760;2023-04-15T03:56:10;100239.75;;;2.26;100.00
70015;BME280;57358;51.094;6.760;2023-04-15T03:58:36;100268.16;;;2.64;100.00
70015;BME280;57358;51.094;6.760;2023-04-15T04:01:02;100261.41;;;2.58;100.00
70015;BME280;57358;51.094;6.760;2023-04-15T04:03:29;100282.69;;;2.69;100.00
70015;BME280;57358;51.094;6.760;2023-04-15T04:05:55;100221.47;;;2.32;100.00
70015;BME280;57358;51.094;6.760;2023-04-15T04:08:22;100219.16;;;2.23;100.00
70015;BME280;57358;51.094;6.760;2023-04-15T04:10:48;100291.47;;;2.64;100.00
70015;BME280;57358;51.094;6.760;2023-04-15T04:13:15;100294.09;;;2.62;100.00
70015;BME280;57358;51.094;6.760;2023-04-15T04:15:41;100284.00;;;2.53;100.00
70015;BME280;57358;51.094;6.760;2023-04-15T04:18:08;100291.81;;;2.50;100.00
70015;BME280;57358;51.094;6.760;2023-04-15T04:20:34;100292.81;;;2.44;100.00
70015;BME280;57358;51.094;6.760;2023-04-15T04:23:00;100234.09;;;2.12;100.00
70015;BME280;57358;51.094;6.760;2023-04-15T04:25:27;100286.84;;;2.42;100.00
70015;BME280;57358;51.094;6.760;2023-04-15T04:27:53;100285.19;;;2.39;100.00
70015;BME280;57358;51.094;6.760;2023-04-15T04:30:20;100288.59;;;2.42;100.00
70015;BME280;57358;51.094;6.760;2023-04-15T04:32:46;100201.06;;;1.87;100.00
70015;BME280;57358;51.094;6.760;2023-04-15T04:35:13;100293.69;;;2.45;100.00
70015;BME280;57358;51.094;6.760;2023-04-15T04:37:39;100079.44;;;1.18;100.00
70015;BME280;57358;51.094;6.760;2023-04-15T04:40:06;100285.16;;;2.41;100.00
70015;BME280;57358;51.094;6.760;2023-04-15T04:42:33;100310.88;;;2.49;100.00
70015;BME280;57358;51.094;6.760;2023-04-15T04:44:59;100304.00;;;2.46;100.00
70015;BME280;57358;51.094;6.760;2023-04-15T04:47:26;100312.66;;;2.45;100.00
70015;BME280;57358;51.094;6.760;2023-04-15T04:49:52;100314.28;;;2.49;100.00
70015;BME280;57358;51.094;6.760;2023-04-15T04:52:19;100328.84;;;2.55;100.00
70015;BME280;57358;51.094;6.760;2023-04-15T04:54:45;100327.13;;;2.54;100.00
70015;BME280;57358;51.094;6.760;2023-04-15T04:57:12;100264.13;;;2.19;100.00
70015;BME280;57358;51.094;6.760;2023-04-15T04:59:39;100326.97;;;2.60;100.00
70015;BME280;57358;51.094;6.760;2023-04-15T05:02:06;100265.97;;;2.14;100.00
70015;BME280;57358;51.094;6.760;2023-04-15T05:04:32;100319.44;;;2.51;100.00
70015;BME280;57358;51.094;6.760;2023-04-15T05:06:59;100336.47;;;2.59;100.00
70015;BME280;57358;51.094;6.760;2023-04-15T05:09:26;100336.41;;;2.63;100.00
70015;BME280;57358;51.094;6.760;2023-04-15T05:11:52;100340.66;;;2.65;100.00
70015;BME280;57358;51.094;6.760;2023-04-15T05:14:21;100333.56;;;2.72;100.00
70015;BME280;57358;51.094;6.760;2023-04-15T05:16:49;100311.50;;;2.57;100.00
70015;BME280;57358;51.094;6.760;2023-04-15T05:19:15;100337.63;;;2.82;100.00
70015;BME280;57358;51.094;6.760;2023-04-15T05:21:41;100338.41;;;2.86;100.00
70015;BME280;57358;51.094;6.760;2023-04-15T05:24:08;100348.28;;;3.04;100.00
70015;BME280;57358;51.094;6.760;2023-04-15T05:26:34;100327.84;;;2.93;100.00
70015;BME280;57358;51.094;6.760;2023-04-15T05:29:01;100351.19;;;3.25;100.00
70015;BME280;57358;51.094;6.760;2023-04-15T05:31:28;100353.31;;;3.42;100.00
70015;BME280;57358;51.094;6.760;2023-04-15T05:33:54;100361.59;;;3.54;100.00
70015;BME280;57358;51.094;6.760;2023-04-15T05:36:21;100342.69;;;3.51;100.00
70015;BME280;57358;51.094;6.760;2023-04-15T05:38:47;100365.84;;;3.87;100.00
70015;BME280;57358;51.094;6.760;2023-04-15T05:41:13;100316.78;;;3.79;100.00
70015;BME280;57358;51.094;6.760;2023-04-15T05:43:43;100372.84;;;4.41;100.00
70015;BME280;57358;51.094;6.760;2023-04-15T05:46:09;100380.00;;;4.61;100.00
70015;BME280;57358;51.094;6.760;2023-04-15T05:48:36;100380.19;;;4.82;100.00
70015;BME280;57358;51.094;6.760;2023-04-15T05:51:03;100383.66;;;5.07;100.00
70015;BME280;57358;51.094;6.760;2023-04-15T05:53:29;100381.28;;;5.25;100.00
70015;BME280;57358;51.094;6.760;2023-04-15T05:55:55;100331.19;;;5.19;100.00
70015;BME280;57358;51.094;6.760;2023-04-15T05:58:22;100381.66;;;5.63;100.00
70015;BME280;57358;51.094;6.760;2023-04-15T06:00:48;100378.88;;;5.91;100.00
70015;BME280;57358;51.094;6.760;2023-04-15T06:03:15;100332.88;;;5.91;100.00
70015;BME280;57358;51.094;6.760;2023-04-15T06:05:42;100373.06;;;6.30;100.00
70015;BME280;57358;51.094;6.760;2023-04-15T06:08:10;100366.53;;;6.42;100.00
70015;BME280;57358;51.094;6.760;2023-04-15T06:10:36;100336.59;;;6.30;100.00
70015;BME280;57358;51.094;6.760;2023-04-15T06:13:03;100293.59;;;6.19;100.00
70015;BME280;57358;51.094;6.760;2023-04-15T06:15:30;100362.13;;;6.64;100.00
70015;BME280;57358;51.094;6.760;2023-04-15T06:17:59;100358.81;;;6.81;100.00
70015;BME280;57358;51.094;6.760;2023-04-15T06:20:25;100354.31;;;6.85;100.00
70015;BME280;57358;51.094;6.760;2023-04-15T06:22:52;100333.59;;;6.82;100.00
70015;BME280;57358;51.094;6.760;2023-04-15T06:25:18;100326.00;;;6.75;100.00
70015;BME280;57358;51.094;6.760;2023-04-15T06:27:45;100347.84;;;6.93;100.00
70015;BME280;57358;51.094;6.760;2023-04-15T06:30:11;100371.63;;;7.08;100.00
70015;BME280;57358;51.094;6.760;2023-04-15T06:32:38;100382.09;;;7.06;100.00
70015;BME280;57358;51.094;6.760;2023-04-15T06:35:04;100366.50;;;7.05;100.00
70015;BME280;57358;51.094;6.760;2023-04-15T06:37:33;100346.13;;;6.94;100.00
70015;BME280;57358;51.094;6.760;2023-04-15T06:39:59;100407.53;;;7.42;100.00
70015;BME280;57358;51.094;6.760;2023-04-15T06:42:26;100416.41;;;7.38;100.00
70015;BME280;57358;51.094;6.760;2023-04-15T06:44:52;100425.16;;;7.37;100.00
70015;BME280;57358;51.094;6.760;2023-04-15T06:47:19;100390.50;;;7.13;100.00
70015;BME280;57358;51.094;6.760;2023-04-15T06:49:45;100456.88;;;7.48;100.00
70015;BME280;57358;51.094;6.760;2023-04-15T06:52:11;100467.16;;;7.51;100.00
70015;BME280;57358;51.094;6.760;2023-04-15T06:54:38;100465.47;;;7.71;100.00
70015;BME280;57358;51.094;6.760;2023-04-15T06:57:05;100372.75;;;7.21;100.00
70015;BME280;57358;51.094;6.760;2023-04-15T06:59:32;100470.06;;;7.85;100.00
70015;BME280;57358;51.094;6.760;2023-04-15T07:01:58;100476.97;;;8.06;100.00
70015;BME280;57358;51.094;6.760;2023-04-15T07:04:25;100401.38;;;7.83;100.00
70015;BME280;57358;51.094;6.760;2023-04-15T07:06:53;100472.38;;;8.49;100.00
70015;BME280;57358;51.094;6.760;2023-04-15T07:09:23;100466.84;;;8.74;100.00
70015;BME280;57358;51.094;6.760;2023-04-15T07:11:50;100472.41;;;9.03;99.80
70015;BME280;57358;51.094;6.760;2023-04-15T07:14:17;100449.69;;;9.04;97.51
70015;BME280;57358;51.094;6.760;2023-04-15T07:16:43;100429.53;;;8.88;94.80
70015;BME280;57358;51.094;6.760;2023-04-15T07:19:10;100440.41;;;8.98;95.18
70015;BME280;57358;51.094;6.760;2023-04-15T07:21:36;100444.53;;;9.19;94.17
70015;BME280;57358;51.094;6.760;2023-04-15T07:24:06;100435.38;;;9.28;92.04
70015;BME280;57358;51.094;6.760;2023-04-15T07:26:33;100387.56;;;9.07;93.06
70015;BME280;57358;51.094;6.760;2023-04-15T07:28:59;100409.78;;;9.33;91.02
70015;BME280;57358;51.094;6.760;2023-04-15T07:31:26;100438.31;;;9.73;90.77
70015;BME280;57358;51.094;6.760;2023-04-15T07:33:53;100425.97;;;9.75;88.50
70015;BME280;57358;51.094;6.760;2023-04-15T07:36:19;100419.81;;;9.92;87.58
70015;BME280;57358;51.094;6.760;2023-04-15T07:38:45;100411.88;;;10.09;86.54
70015;BME280;57358;51.094;6.760;2023-04-15T07:41:12;100377.81;;;10.09;83.17
70015;BME280;57358;51.094;6.760;2023-04-15T07:43:39;100382.84;;;10.28;82.21
70015;BME280;57358;51.094;6.760;2023-04-15T07:46:05;100382.56;;;10.34;81.65
70015;BME280;57358;51.094;6.760;2023-04-15T07:48:32;100398.53;;;10.46;82.31
70015;BME280;57358;51.094;6.760;2023-04-15T07:51:00;100269.66;;;9.90;79.34
70015;BME280;57358;51.094;6.760;2023-04-15T07:53:27;100356.81;;;10.57;77.89
70015;BME280;57358;51.094;6.760;2023-04-15T07:55:54;100324.16;;;10.47;76.77
70015;BME280;57358;51.094;6.760;2023-04-15T07:58:21;100291.00;;;10.30;76.49
70015;BME280;57358;51.094;6.760;2023-04-15T08:00:47;100289.34;;;10.13;77.12
70015;BME280;57358;51.094;6.760;2023-04-15T08:03:14;100273.28;;;10.03;77.13
70015;BME280;57358;51.094;6.760;2023-04-15T08:05:40;100335.31;;;10.50;75.65
70015;BME280;57358;51.094;6.760;2023-04-15T08:08:07;100276.69;;;10.35;73.32
70015;BME280;57358;51.094;6.760;2023-04-15T08:10:36;100280.00;;;10.39;73.41
70015;BME280;57358;51.094;6.760;2023-04-15T08:13:02;100282.22;;;10.31;74.04
70015;BME280;57358;51.094;6.760;2023-04-15T08:15:29;100337.47;;;10.58;74.12
70015;BME280;57358;51.094;6.760;2023-04-15T08:17:58;100312.69;;;10.78;73.04
70015;BME280;57358;51.094;6.760;2023-04-15T08:20:26;100307.97;;;10.99;72.08
70015;BME280;57358;51.094;6.760;2023-04-15T08:22:52;100244.84;;;11.01;69.98
70015;BME280;57358;51.094;6.760;2023-04-15T08:25:19;100241.94;;;10.91;69.32
70015;BME280;57358;51.094;6.760;2023-04-15T08:27:46;100162.16;;;10.50;69.41
70015;BME280;57358;51.094;6.760;2023-04-15T08:30:12;100273.81;;;11.13;70.51
70015;BME280;57358;51.094;6.760;2023-04-15T08:32:41;100207.44;;;10.97;69.02
70015;BME280;57358;51.094;6.760;2023-04-15T08:35:08;100198.50;;;11.14;68.10
70015;BME280;57358;51.094;6.760;2023-04-15T08:37:34;100201.75;;;11.32;67.36
70015;BME280;57358;51.094;6.760;2023-04-15T08:40:00;100182.72;;;11.28;66.47
70015;BME280;57358;51.094;6.760;2023-04-15T08:42:30;100140.84;;;10.98;66.71
70015;BME280;57358;51.094;6.760;2023-04-15T08:44:59;100146.00;;;11.41;64.88
70015;BME280;57358;51.094;6.760;2023-04-15T08:47:29;100113.97;;;11.49;63.64
70015;BME280;57358;51.094;6.760;2023-04-15T08:49:57;100098.97;;;11.51;63.81
70015;BME280;57358;51.094;6.760;2023-04-15T08:52:25;100244.44;;;11.91;66.19
70015;BME280;57358;51.094;6.760;2023-04-15T08:54:55;100201.91;;;11.70;65.83
70015;BME280;57358;51.094;6.760;2023-04-15T08:57:26;100153.50;;;11.47;65.13
70015;BME280;57358;51.094;6.760;2023-04-15T08:59:55;100089.69;;;10.91;63.98
70015;BME280;57358;51.094;6.760;2023-04-15T09:02:22;100127.53;;;11.01;64.69
70015;BME280;57358;51.094;6.760;2023-04-15T09:04:49;100153.22;;;11.37;64.09
70015;BME280;57358;51.094;6.760;2023-04-15T09:07:16;100183.19;;;11.35;65.44
70015;BME280;57358;51.094;6.760;2023-04-15T09:09:42;100172.72;;;11.21;65.82
70015;BME280;57358;51.094;6.760;2023-04-15T09:12:10;100207.75;;;11.34;66.37
70015;BME280;57358;51.094;6.760;2023-04-15T09:14:39;100261.75;;;11.67;67.45
70015;BME280;57358;51.094;6.760;2023-04-15T09:17:09;100054.00;;;10.60;66.10
70015;BME280;57358;51.094;6.760;2023-04-15T09:19:35;100198.84;;;11.64;65.26
70015;BME280;57358;51.094;6.760;2023-04-15T09:22:02;100136.81;;;11.34;65.08
70015;BME280;57358;51.094;6.760;2023-04-15T09:24:38;100207.03;;;11.59;66.13
70015;BME280;57358;51.094;6.760;2023-04-15T09:27:06;100228.03;;;12.01;64.53
70015;BME280;57358;51.094;6.760;2023-04-15T09:29:32;100192.50;;;12.08;64.60
70015;BME280;57358;51.094;6.760;2023-04-15T09:32:12;100072.09;;;11.73;62.17
70015;BME280;57358;51.094;6.760;2023-04-15T09:34:39;100138.41;;;11.91;62.94
70015;BME280;57358;51.094;6.760;2023-04-15T09:37:05;100159.44;;;11.91;63.12
70015;BME280;57358;51.094;6.760;2023-04-15T09:39:50;100164.13;;;11.86;64.19
70015;BME280;57358;51.094;6.760;2023-04-15T09:42:18;100151.66;;;11.89;63.15
70015;BME280;57358;51.094;6.760;2023-04-15T09:44:51;100191.47;;;12.23;62.94
70015;BME280;57358;51.094;6.760;2023-04-15T09:47:31;100142.53;;;12.08;62.97
70015;BME280;57358;51.094;6.760;2023-04-15T09:49:59;100065.78;;;11.63;62.97
70015;BME280;57358;51.094;6.760;2023-04-15T09:52:26;100172.06;;;11.98;63.07
70015;BME280;57358;51.094;6.760;2023-04-15T09:54:53;100178.59;;;11.93;63.45
70015;BME280;57358;51.094;6.760;2023-04-15T09:57:23;100188.78;;;11.97;63.50
70015;BME280;57358;51.094;6.760;2023-04-15T09:59:50;100174.16;;;11.93;62.97
70015;BME280;57358;51.094;6.760;2023-04-15T10:02:18;100190.78;;;11.94;63.16
70015;BME280;57358;51.094;6.760;2023-04-15T10:04:47;100094.44;;;12.06;61.62
70015;BME280;57358;51.094;6.760;2023-04-15T10:07:15;100040.84;;;11.68;61.25
70015;BME280;57358;51.094;6.760;2023-04-15T10:09:44;100187.78;;;12.38;61.63
70015;BME280;57358;51.094;6.760;2023-04-15T10:12:11;100167.38;;;12.29;61.85
70015;BME280;57358;51.094;6.760;2023-04-15T10:14:39;100166.44;;;12.56;61.23
70015;BME280;57358;51.094;6.760;2023-04-15T10:17:06;100135.38;;;12.10;61.06
70015;BME280;57358;51.094;6.760;2023-04-15T10:19:36;100114.19;;;11.98;61.52
70015;BME280;57358;51.094;6.760;2023-04-15T10:22:03;100220.34;;;12.63;61.27
70015;BME280;57358;51.094;6.760;2023-04-15T10:24:33;100195.59;;;12.78;60.70
70015;BME280;57358;51.094;6.760;2023-04-15T10:26:59;100145.59;;;12.27;61.30
70015;BME280;57358;51.094;6.760;2023-04-15T10:29:26;100239.84;;;12.73;61.94
70015;BME280;57358;51.094;6.760;2023-04-15T10:31:55;100196.09;;;12.96;60.64
70015;BME280;57358;51.094;6.760;2023-04-15T10:34:23;100193.81;;;12.79;60.59
70015;BME280;57358;51.094;6.760;2023-04-15T10:36:50;100268.06;;;13.35;60.26
70015;BME280;57358;51.094;6.760;2023-04-15T10:42:19;100144.97;;;13.12;59.54
70015;BME280;57358;51.094;6.760;2023-04-15T10:44:50;100184.81;;;13.07;60.39
70015;BME280;57358;51.094;6.760;2023-04-15T10:47:18;100283.22;;;13.19;60.91
70015;BME280;57358;51.094;6.760;2023-04-15T10:49:57;100216.19;;;13.23;59.98
70015;BME280;57358;51.094;6.760;2023-04-15T10:52:26;100221.84;;;12.93;60.19
70015;BME280;57358;51.094;6.760;2023-04-15T10:55:02;100279.22;;;13.01;61.20
70015;BME280;57358;51.094;6.760;2023-04-15T10:57:38;100212.03;;;12.56;60.64
70015;BME280;57358;51.094;6.760;2023-04-15T11:00:12;100254.38;;;12.79;61.44
70015;BME280;57358;51.094;6.760;2023-04-15T11:08:12;100304.59;;;13.14;61.67
70015;BME280;57358;51.094;6.760;2023-04-15T11:13:15;100044.19;;;10.90;62.07
70015;BME280;57358;51.094;6.760;2023-04-15T11:15:43;100302.50;;;12.28;62.77
70015;BME280;57358;51.094;6.760;2023-04-15T11:18:15;100403.13;;;12.32;65.03
70015;BME280;57358;51.094;6.760;2023-04-15T11:20:43;100351.28;;;12.07;64.95
70015;BME280;57358;51.094;6.760;2023-04-15T11:23:11;100372.50;;;12.04;64.33
70015;BME280;57358;51.094;6.760;2023-04-15T11:25:41;100404.97;;;12.03;65.27
70015;BME280;57358;51.094;6.760;2023-04-15T11:28:09;100407.38;;;11.93;65.31
70015;BME280;57358;51.094;6.760;2023-04-15T11:30:36;100407.81;;;11.85;65.72
70015;BME280;57358;51.094;6.760;2023-04-15T11:33:08;100447.84;;;12.05;66.85
70015;BME280;57358;51.094;6.760;2023-04-15T11:35:35;100399.34;;;11.94;64.93
70015;BME280;57358;51.094;6.760;2023-04-15T11:38:07;100475.31;;;12.28;65.69
70015;BME280;57358;51.094;6.760;2023-04-15T11:40:34;100409.41;;;12.02;64.89
70015;BME280;57358;51.094;6.760;2023-04-15T11:43:05;100484.66;;;12.05;67.01
70015;BME280;57358;51.094;6.760;2023-04-15T11:45:31;100459.53;;;11.70;66.52
70015;BME280;57358;51.094;6.760;2023-04-15T11:48:09;100507.53;;;11.88;67.88
70015;BME280;57358;51.094;6.760;2023-04-15T11:50:37;100478.91;;;11.98;66.50
70015;BME280;57358;51.094;6.760;2023-04-15T11:53:07;100472.72;;;11.99;67.11
70015;BME280;57358;51.094;6.760;2023-04-15T11:55:50;100458.31;;;11.62;68.10
70015;BME280;57358;51.094;6.760;2023-04-15T11:58:21;100492.00;;;11.55;69.21
70015;BME280;57358;51.094;6.760;2023-04-15T12:00:57;100559.22;;;11.89;70.11
70015;BME280;57358;51.094;6.760;2023-04-15T12:06:20;100584.16;;;12.27;69.78
70015;BME280;57358;51.094;6.760;2023-04-15T12:09:04;100555.00;;;12.44;68.61
70015;BME280;57358;51.094;6.760;2023-04-15T12:11:38;100569.38;;;12.53;67.49
70015;BME280;57358;51.094;6.760;2023-04-15T12:14:24;100576.88;;;12.45;69.06
70015;BME280;57358;51.094;6.760;2023-04-15T12:16:54;100512.63;;;12.34;66.47
70015;BME280;57358;51.094;6.760;2023-04-15T12:19:35;100445.38;;;11.87;66.22
70015;BME280;57358;51.094;6.760;2023-04-15T12:22:05;100445.00;;;11.65;67.10
70015;BME280;57358;51.094;6.760;2023-04-15T12:24:33;100540.03;;;11.73;69.11
70015;BME280;57358;51.094;6.760;2023-04-15T12:27:04;100542.56;;;11.44;70.78
70015;BME280;57358;51.094;6.760;2023-04-15T12:29:32;100618.97;;;12.02;70.59
70015;BME280;57358;51.094;6.760;2023-04-15T12:32:10;100591.75;;;12.17;69.37
70015;BME280;57358;51.094;6.760;2023-04-15T12:37:06;100537.13;;;11.47;69.96
70015;BME280;57358;51.094;6.760;2023-04-15T12:39:37;100618.59;;;11.47;71.64
70015;BME280;57358;51.094;6.760;2023-04-15T12:42:05;100634.28;;;11.49;72.35
70015;BME280;57358;51.094;6.760;2023-04-15T12:44:32;100638.69;;;11.48;71.62
70015;BME280;57358;51.094;6.760;2023-04-15T12:46:59;100651.59;;;11.37;72.09
70015;BME280;57358;51.094;6.760;2023-04-15T12:49:28;100574.44;;;10.92;72.33
70015;BME280;57358;51.094;6.760;2023-04-15T12:51:56;100664.19;;;11.46;72.01
70015;BME280;57358;51.094;6.760;2023-04-15T12:54:23;100621.75;;;11.38;70.90
70015;BME280;57358;51.094;6.760;2023-04-15T12:56:49;100554.38;;;10.91;70.92
70015;BME280;57358;51.094;6.760;2023-04-15T12:59:16;100662.25;;;11.34;72.48
70015;BME280;57358;51.094;6.760;2023-04-15T13:01:45;100674.81;;;11.45;72.58
70015;BME280;57358;51.094;6.760;2023-04-15T13:04:13;100701.19;;;11.43;73.60
70015;BME280;57358;51.094;6.760;2023-04-15T13:06:39;100616.28;;;10.95;73.32
70015;BME280;57358;51.094;6.760;2023-04-15T13:09:06;100728.13;;;11.47;74.24